Time;durP1;ratioP1;P1;durP2;ratioP2;P2;SDS_P1;SDS_P2;PMS_P1;PMS_P2;Temp;Humidity;BMP_temperature;BMP_pressure;BME280_temperature;BME280_humidity;BME280_pressure;Samples;Min_cycle;Max_cycle;Signal;HPM_P1;HPM_P2
2022/03/30 00:00:04;;;;;;;26.85;6.45;;;13.30;45.00;;;9.62;54.66;94399.50;5029231;28;20325;-57
2022/03/30 00:02:31;;;;;;;25.55;6.13;;;13.30;45.00;;;9.64;52.83;94402.69;5028928;28;20049;-58
2022/03/30 00:05:06;;;;;;;29.40;6.10;;;13.30;44.70;;;9.70;54.16;94401.53;5012194;28;20038;-59
2022/03/30 00:07:35;;;;;;;25.27;5.53;;;13.40;44.90;;;9.71;53.43;94401.25;5029110;28;20037;-56
2022/03/30 00:10:03;;;;;;;33.13;5.72;;;13.40;44.80;;;9.71;54.00;94395.94;5031298;28;20088;-54
2022/03/30 00:12:34;;;;;;;26.42;6.22;;;13.40;44.70;;;9.66;53.98;94382.72;5028831;28;20049;-54
2022/03/30 00:15:04;;;;;;;25.10;6.47;;;13.40;44.70;;;9.67;55.32;94380.84;5031010;28;20034;-55
2022/03/30 00:17:43;;;;;;;25.52;5.63;;;13.40;44.80;;;9.67;54.27;94389.59;5040796;22;20539;-56
2022/03/30 00:20:10;;;;;;;24.67;5.65;;;13.40;45.00;;;9.70;53.44;94390.91;4991927;28;20037;-57
2022/03/30 00:22:40;;;;;;;24.75;6.25;;;13.40;44.70;;;9.71;54.04;94389.81;4992759;28;20042;-54
2022/03/30 00:25:08;;;;;;;29.02;5.85;;;13.40;44.70;;;9.78;54.24;94394.78;4992917;28;20117;-55
2022/03/30 00:27:34;;;;;;;27.60;6.00;;;13.40;44.70;;;9.75;54.16;94388.19;4983969;23;20465;-55
2022/03/30 00:30:06;;;;;;;38.88;6.28;;;13.40;44.70;;;9.69;55.15;94392.00;4973412;28;20027;-57
2022/03/30 00:32:34;;;;;;;19.58;5.57;;;13.40;44.80;;;9.58;54.03;94385.22;4957553;28;20031;-56
2022/03/30 00:35:00;;;;;;;32.85;6.80;;;13.30;44.80;;;9.60;55.73;94383.06;4954863;29;20034;-55
2022/03/30 00:37:32;;;;;;;26.27;5.78;;;13.30;45.00;;;9.61;55.94;94382.78;4954881;29;20028;-53
2022/03/30 00:39:58;;;;;;;30.65;6.53;;;13.30;45.20;;;9.53;55.76;94371.97;4969813;28;20498;-54
2022/03/30 00:42:25;;;;;;;21.38;6.47;;;13.20;45.20;;;9.53;56.27;94370.13;4954553;29;20035;-56
2022/03/30 00:44:54;;;;;;;26.27;6.47;;;13.20;45.30;;;9.35;56.70;94370.91;4953339;29;20034;-54
2022/03/30 00:47:26;;;;;;;21.92;5.93;;;13.20;45.60;;;9.38;56.44;94363.16;4954727;29;20043;-53
2022/03/30 00:49:52;;;;;;;26.95;6.85;;;13.20;45.60;;;9.37;56.79;94358.09;4953550;29;20509;-55
2022/03/30 00:52:30;;;;;;;24.95;6.63;;;13.20;45.70;;;9.32;57.00;94352.88;4953458;29;20027;-55
2022/03/30 00:54:57;;;;;;;27.17;5.60;;;13.20;45.90;;;9.37;57.36;94352.78;4953441;29;20027;-55
2022/03/30 00:57:29;;;;;;;28.60;6.25;;;13.10;45.80;;;9.32;56.82;94358.19;4953296;29;20026;-56
2022/03/30 00:59:56;;;;;;;23.48;5.47;;;13.10;46.00;;;9.35;56.82;94354.97;4969110;28;20023;-54
2022/03/30 01:02:23;;;;;;;32.10;5.93;;;13.10;45.90;;;9.37;57.28;94342.97;4969171;28;20039;-56
2022/03/30 01:04:52;;;;;;;26.48;6.25;;;13.10;46.60;;;9.38;56.24;94349.06;4969214;28;20035;-52
2022/03/30 01:07:18;;;;;;;24.45;7.03;;;13.10;46.00;;;9.38;56.99;94341.91;4954392;29;20042;-53
2022/03/30 01:09:50;;;;;;;27.38;5.75;;;13.20;46.10;;;9.38;57.01;94341.91;4969336;28;20031;-57
2022/03/30 01:12:16;;;;;;;28.77;5.93;;;13.20;46.20;;;9.41;57.37;94336.00;4954286;29;20035;-55
2022/03/30 01:14:52;;;;;;;25.85;5.90;;;13.20;46.10;;;9.36;57.31;94333.41;4953175;29;20023;-56
2022/03/30 01:17:19;;;;;;;23.42;6.25;;;13.20;46.40;;;9.31;57.51;94330.03;4968929;28;20062;-53
2022/03/30 01:19:44;;;;;;;30.60;7.03;;;13.10;46.30;;;9.33;56.44;94333.97;4969206;28;20027;-55
2022/03/30 01:22:16;;;;;;;20.85;6.47;;;13.10;46.30;;;9.38;56.07;94333.13;4954288;29;20162;-55
2022/03/30 01:24:47;;;;;;;25.45;6.93;;;13.10;46.20;;;9.28;57.38;94323.44;4954450;28;20032;-56
2022/03/30 01:27:18;;;;;;;29.38;5.82;;;13.10;46.40;;;9.33;57.83;94320.69;4954169;29;20438;-55
2022/03/30 01:32:33;;;;;;;29.63;6.00;;;13.10;46.50;;;9.27;57.97;94317.34;4954152;29;20530;-52
2022/03/30 01:35:07;;;;;;;21.77;6.03;;;13.10;46.60;;;9.27;58.54;94305.88;4968843;28;20063;-51
2022/03/30 01:37:35;;;;;;;28.08;6.32;;;13.10;46.80;;;9.29;58.55;94309.06;4968816;28;20066;-54
2022/03/30 01:40:06;;;;;;;26.77;6.22;;;13.10;46.80;;;9.31;61.08;94298.94;4954245;28;20035;-53
2022/03/30 01:42:38;;;;;;;33.17;7.05;;;13.10;47.20;;;9.28;61.70;94304.84;4968747;28;20037;-52
2022/03/30 01:45:05;;;;;;;21.55;6.10;;;13.00;47.50;;;9.25;62.92;94302.75;4969035;28;20445;-52
2022/03/30 01:47:54;;;;;;;32.40;6.93;;;13.00;47.70;;;9.11;63.80;94300.00;4954070;29;20024;-53
2022/03/30 01:50:25;;;;;;;26.52;6.85;;;12.90;48.50;;;9.15;62.00;94308.19;4968591;28;20057;-53
2022/03/30 01:52:51;;;;;;;21.23;6.22;;;12.80;48.40;;;9.12;63.68;94303.44;4954727;28;20035;-55
2022/03/30 01:55:18;;;;;;;28.83;7.28;;;12.70;48.60;;;8.98;64.03;94304.16;4957856;29;20023;-56
2022/03/30 01:57:47;;;;;;;16.13;5.95;;;12.60;49.00;;;8.96;66.38;94297.53;4972724;28;20367;-57
2022/03/30 02:00:17;;;;;;;22.48;6.20;;;12.60;50.20;;;8.87;65.15;94291.28;4956543;29;20081;-56
2022/03/30 02:02:43;;;;;;;29.25;6.57;;;12.50;49.70;;;8.75;66.18;94289.03;4946002;29;20046;-53
2022/03/30 02:05:12;;;;;;;19.95;6.85;;;12.50;50.00;;;8.85;66.84;94293.44;4975064;28;20090;-56
2022/03/30 02:07:39;;;;;;;21.58;5.78;;;12.40;50.50;;;8.92;63.00;94278.72;4976937;28;20544;-54
2022/03/30 02:10:08;;;;;;;31.13;6.35;;;12.40;50.90;;;9.08;64.14;94279.31;4976898;28;20502;-54
2022/03/30 02:12:38;;;;;;;25.90;6.18;;;12.40;51.30;;;9.23;63.82;94281.75;4975570;28;20519;-55
2022/03/30 02:15:10;;;;;;;29.83;6.57;;;12.40;51.90;;;9.31;62.46;94263.59;4975698;28;20106;-54
2022/03/30 02:17:38;;;;;;;29.55;6.32;;;12.40;52.00;;;9.41;63.90;94271.44;4976787;28;20174;-56
2022/03/30 02:20:05;;;;;;;26.60;6.93;;;12.40;52.10;;;9.41;62.81;94263.47;4975514;28;20027;-56
2022/03/30 02:22:35;;;;;;;31.90;6.45;;;12.40;52.10;;;9.43;63.95;94264.75;4976652;28;20030;-52
2022/03/30 02:25:04;;;;;;;27.48;6.47;;;12.50;52.50;;;9.47;63.16;94260.44;4991764;28;20043;-55
2022/03/30 02:27:32;;;;;;;28.17;6.13;;;12.50;52.60;;;9.52;63.09;94266.75;4974989;28;20527;-52
2022/03/30 02:30:04;;;;;;;26.63;5.93;;;12.50;52.70;;;9.54;63.86;94262.72;4956869;28;20117;-51
2022/03/30 02:32:29;;;;;;;32.50;5.85;;;12.50;52.80;;;9.54;65.09;94265.38;4957140;29;20035;-53
2022/03/30 02:35:01;;;;;;;27.63;5.50;;;12.60;52.80;;;9.53;63.07;94255.03;4957099;29;20141;-52
2022/03/30 02:37:27;;;;;;;28.88;6.30;;;12.60;52.80;;;9.53;65.18;94253.19;4957054;29;20447;-52
2022/03/30 02:39:52;;;;;;;21.77;5.47;;;12.60;52.90;;;9.52;66.03;94248.91;4957227;29;20023;-54
2022/03/30 02:42:18;;;;;;;26.55;5.97;;;12.60;53.10;;;9.49;66.10;94244.19;4957172;29;20031;-55
2022/03/30 02:44:44;;;;;;;27.15;6.07;;;12.70;53.20;;;9.48;65.40;94246.06;4955824;29;20045;-56
2022/03/30 02:47:12;;;;;;;20.52;6.13;;;12.60;53.10;;;9.50;62.99;94243.91;4956729;29;20031;-55
2022/03/30 02:49:41;;;;;;;29.38;5.97;;;12.70;53.30;;;9.60;63.45;94239.50;4957003;29;20110;-56
2022/03/30 02:52:07;;;;;;;21.42;6.53;;;12.70;53.30;;;9.59;62.58;94233.41;4956754;29;20110;-56
2022/03/30 02:54:33;;;;;;;32.65;5.43;;;12.70;53.20;;;9.71;62.12;94233.75;4955630;29;20466;-55
2022/03/30 02:57:06;;;;;;;27.52;5.85;;;12.70;53.20;;;9.75;62.64;94228.63;4971737;28;20038;-53
2022/03/30 02:59:34;;;;;;;28.77;6.25;;;12.80;53.50;;;9.75;63.83;94225.97;4956709;29;20027;-56
2022/03/30 03:02:06;;;;;;;29.20;5.75;;;12.80;53.30;;;9.71;62.89;94216.97;4956754;29;20196;-53
2022/03/30 03:04:38;;;;;;;34.88;6.68;;;12.80;53.50;;;9.70;63.58;94224.16;4956128;28;20102;-55
2022/03/30 03:07:05;;;;;;;22.20;5.28;;;12.80;53.50;;;9.71;63.71;94216.97;4956645;29;20393;-54
2022/03/30 03:09:31;;;;;;;22.30;5.03;;;12.80;53.60;;;9.71;64.17;94219.63;4955350;29;20510;-54
2022/03/30 03:11:56;;;;;;;22.42;5.57;;;12.80;53.60;;;9.67;64.35;94213.34;4955083;29;20035;-53
2022/03/30 03:14:28;;;;;;;30.55;5.47;;;12.80;53.70;;;9.65;64.01;94218.94;4956421;29;20031;-56
2022/03/30 03:16:56;;;;;;;36.35;5.47;;;12.70;53.70;;;9.63;64.44;94215.00;4956353;29;20505;-54
2022/03/30 03:19:25;;;;;;;28.95;5.32;;;12.70;53.80;;;9.57;65.32;94218.81;4956445;29;20027;-54
2022/03/30 03:21:54;;;;;;;26.60;6.38;;;12.70;54.00;;;9.54;64.59;94219.41;4955078;29;20039;-56
2022/03/30 03:24:19;;;;;;;20.30;5.72;;;12.70;54.10;;;9.49;65.21;94215.75;4956339;29;20073;-54
2022/03/30 03:26:45;;;;;;;20.52;5.80;;;12.60;54.20;;;9.44;64.10;94212.38;4955779;29;20055;-53
2022/03/30 03:29:13;;;;;;;30.63;5.70;;;12.60;54.20;;;9.40;64.64;94209.53;4956298;29;20035;-51
2022/03/30 03:31:42;;;;;;;27.45;5.10;;;12.50;54.80;;;9.34;64.49;94210.69;4955206;29;20035;-55
2022/03/30 03:34:12;;;;;;;23.67;5.10;;;12.50;54.30;;;9.33;64.92;94217.06;4955231;29;20070;-55
2022/03/30 03:36:38;;;;;;;27.15;5.65;;;12.50;54.40;;;9.27;65.09;94208.38;4954900;28;20394;-54
2022/03/30 03:39:06;;;;;;;25.25;5.93;;;12.50;54.40;;;9.27;64.77;94207.56;4956063;28;20182;-55
2022/03/30 03:41:35;;;;;;;27.25;5.35;;;12.50;54.40;;;9.23;65.76;94212.69;4970830;28;20059;-53
2022/03/30 03:44:04;;;;;;;21.65;5.25;;;12.40;54.60;;;9.21;65.75;94201.56;4956011;29;20038;-54
2022/03/30 03:46:33;;;;;;;26.73;6.05;;;12.40;54.60;;;9.17;65.52;94202.44;4970777;28;20035;-54
2022/03/30 03:49:01;;;;;;;20.77;5.43;;;12.40;54.80;;;9.11;65.58;94203.56;4955849;29;20031;-53
2022/03/30 03:51:36;;;;;;;29.88;5.75;;;12.40;54.80;;;9.16;64.80;94206.94;4970676;28;20031;-53
2022/03/30 03:54:05;;;;;;;28.13;5.68;;;12.50;55.10;;;9.18;65.29;94204.00;4955826;29;20027;-54
2022/03/30 03:56:31;;;;;;;27.80;5.60;;;12.40;55.00;;;9.17;64.69;94203.22;4954385;29;20031;-52
2022/03/30 03:59:06;;;;;;;32.47;6.60;;;12.40;55.00;;;9.21;64.85;94204.22;4970504;28;20031;-53
2022/03/30 04:01:35;;;;;;;28.75;5.95;;;12.40;55.10;;;9.21;66.25;94198.09;4956014;29;20122;-55
2022/03/30 04:04:03;;;;;;;28.45;5.55;;;12.40;55.20;;;9.23;64.74;94195.97;4954304;29;20067;-54
2022/03/30 04:06:33;;;;;;;27.48;5.75;;;12.50;55.20;;;9.22;64.03;94199.69;4955449;29;20038;-53
2022/03/30 04:09:04;;;;;;;30.48;5.55;;;12.50;55.20;;;9.25;64.49;94188.50;4954310;29;20394;-56
2022/03/30 04:11:33;;;;;;;23.70;5.20;;;12.50;55.20;;;9.26;65.03;94190.06;4955540;29;20076;-55
2022/03/30 04:14:03;;;;;;;22.92;5.53;;;12.50;55.30;;;9.26;65.19;94198.03;4954189;29;20031;-54
2022/03/30 04:16:34;;;;;;;25.17;5.40;;;12.50;55.30;;;9.27;65.75;94202.25;4953190;28;20035;-55
2022/03/30 04:19:06;;;;;;;23.40;5.35;;;12.50;55.40;;;9.24;64.92;94187.72;4955183;29;20494;-51
2022/03/30 04:21:32;;;;;;;24.35;5.38;;;12.50;55.30;;;9.24;64.74;94189.56;4955262;29;20070;-55
2022/03/30 04:24:04;;;;;;;24.63;5.05;;;12.50;55.30;;;9.26;64.91;94188.19;4953976;29;20106;-53
2022/03/30 04:26:37;;;;;;;21.88;5.65;;;12.50;55.30;;;9.23;63.68;94185.31;4953624;29;20027;-56
2022/03/30 04:29:03;;;;;;;20.25;5.72;;;12.50;55.30;;;9.25;65.52;94186.63;4969997;28;20425;-56
2022/03/30 04:31:29;;;;;;;23.77;5.43;;;12.50;55.30;;;9.21;64.42;94182.97;4954948;29;20488;-55
2022/03/30 04:33:55;;;;;;;25.25;5.82;;;12.50;55.40;;;9.22;64.70;94179.22;4955093;29;20030;-53
2022/03/30 04:36:21;;;;;;;21.33;5.18;;;12.50;55.40;;;9.24;65.37;94178.94;4953688;29;20207;-51
2022/03/30 04:38:54;;;;;;;26.67;5.60;;;12.50;55.50;;;9.23;65.60;94180.78;4953676;29;20034;-51
2022/03/30 04:41:23;;;;;;;24.10;4.90;;;12.50;55.70;;;9.19;65.45;94181.69;4953998;29;20035;-52
2022/03/30 04:43:49;;;;;;;28.77;5.63;;;12.50;55.70;;;9.16;65.98;94176.94;4953536;29;20031;-52
2022/03/30 04:46:19;;;;;;;23.23;5.10;;;12.50;55.80;;;9.17;66.24;94178.50;4969681;28;20027;-54
2022/03/30 04:48:45;;;;;;;18.08;4.80;;;12.50;56.00;;;9.14;66.33;94181.75;4969408;28;20086;-51
2022/03/30 04:51:15;;;;;;;25.67;5.15;;;12.40;56.10;;;9.13;65.57;94177.53;4954693;29;20051;-52
2022/03/30 04:53:48;;;;;;;23.05;4.97;;;12.40;56.10;;;9.14;66.18;94173.78;4954702;29;20034;-55
2022/03/30 04:56:20;;;;;;;;;;;12.40;56.20;;;9.12;65.71;94175.94;4953878;29;20023;-55
2022/03/30 04:58:46;;;;;;;21.50;5.63;;;12.40;56.20;;;9.11;66.21;94177.78;4954761;28;19921;-54
2022/03/30 05:01:12;;;;;;;22.75;5.38;;;12.40;56.20;;;9.10;66.00;94178.09;4954668;29;20031;-56
2022/03/30 05:03:38;;;;;;;17.48;4.75;;;12.40;56.40;;;9.13;65.37;94183.63;4954604;29;20549;-57
2022/03/30 05:06:12;;;;;;;21.98;4.75;;;12.40;56.40;;;9.12;65.42;94171.44;4954588;29;20107;-51
2022/03/30 05:08:41;;;;;;;16.83;5.03;;;12.40;56.50;;;9.12;65.00;94167.94;4954253;29;20122;-51
2022/03/30 05:11:07;;;;;;;20.95;3.92;;;12.40;56.50;;;9.13;65.42;94169.56;4954347;29;20031;-53
2022/03/30 05:13:33;;;;;;;16.15;4.72;;;12.40;56.60;;;9.13;65.72;94167.69;4953185;29;20114;-53
2022/03/30 05:15:58;;;;;;;19.98;5.20;;;12.40;56.70;;;9.15;65.63;94170.03;4954403;29;20482;-55
2022/03/30 05:18:33;;;;;;;16.02;4.57;;;12.40;56.70;;;9.13;66.11;94162.38;4954400;29;20110;-55
2022/03/30 05:21:02;;;;;;;23.65;5.10;;;12.40;56.80;;;9.16;65.57;94159.13;4954538;29;20394;-56
2022/03/30 05:23:27;;;;;;;23.10;4.90;;;12.40;56.80;;;9.17;65.91;94163.34;4968965;28;20488;-55
2022/03/30 05:25:53;;;;;;;16.20;4.47;;;12.40;56.70;;;9.13;65.87;94170.34;4954270;28;20127;-55
2022/03/30 05:28:21;;;;;;;19.42;4.70;;;12.40;56.70;;;9.14;66.45;94163.16;4953230;29;20043;-57
2022/03/30 05:30:50;;;;;;;15.63;5.50;;;12.50;56.70;;;9.12;66.83;94160.00;4954304;29;20032;-55
2022/03/30 05:33:22;;;;;;;17.95;4.90;;;12.40;56.80;;;9.09;66.95;94160.56;4954141;29;20032;-56
2022/03/30 05:35:50;;;;;;;14.13;5.15;;;12.50;56.90;;;9.09;67.51;94168.53;4954054;29;20066;-55
2022/03/30 05:38:21;;;;;;;16.30;5.65;;;12.50;56.90;;;9.11;67.44;94158.41;4954165;29;20051;-53
2022/03/30 05:40:50;;;;;;;19.27;5.07;;;12.50;57.00;;;9.08;67.40;94159.78;4968807;28;20035;-56
2022/03/30 05:43:17;;;;;;;12.38;4.68;;;12.50;57.00;;;9.02;67.47;94153.78;4954228;29;20043;-52
2022/03/30 05:45:50;;;;;;;20.10;5.03;;;12.50;56.90;;;9.04;67.74;94156.91;4952859;29;20102;-54
2022/03/30 05:48:22;;;;;;;19.20;5.00;;;12.50;57.00;;;9.09;67.85;94156.06;4968059;28;20102;-55
2022/03/30 05:50:51;;;;;;;17.77;4.70;;;12.60;57.00;;;9.10;68.01;94156.84;4954537;29;20031;-51
2022/03/30 05:53:23;;;;;;;16.90;4.88;;;12.60;56.90;;;9.08;67.79;94154.47;4948657;29;20576;-53
2022/03/30 05:55:49;;;;;;;21.35;4.80;;;12.60;56.90;;;9.07;67.86;94152.91;4946778;28;20497;-53
2022/03/30 05:58:14;;;;;;;15.80;4.60;;;12.60;56.90;;;9.09;67.61;94152.59;4965732;28;20024;-53
2022/03/30 06:00:42;;;;;;;20.35;5.40;;;12.60;56.90;;;9.08;67.53;94151.81;4984351;28;20045;-54
2022/03/30 06:03:10;;;;;;;13.82;4.40;;;12.70;57.00;;;9.13;67.17;94158.94;4973754;28;20036;-51
2022/03/30 06:05:37;;;;;;;15.52;4.90;;;12.70;56.80;;;9.19;67.33;94155.13;4965497;28;20055;-54
2022/03/30 06:08:04;;;;;;;21.27;5.45;;;12.80;56.80;;;9.18;67.35;94153.50;4924226;28;20077;-53
2022/03/30 06:10:30;;;;;;;15.93;4.28;;;12.80;56.80;;;9.17;67.38;94159.91;4973251;28;20089;-55
2022/03/30 06:12:58;;;;;;;16.17;5.07;;;12.80;56.80;;;9.21;67.57;94153.75;4963693;28;20028;-56
2022/03/30 06:15:25;;;;;;;20.58;4.88;;;12.90;56.80;;;9.25;67.91;94151.28;4932310;28;20071;-56
2022/03/30 06:17:51;;;;;;;23.48;5.60;;;12.90;56.80;;;9.25;67.46;94153.94;4979092;23;20054;-53
2022/03/30 06:20:18;;;;;;;15.63;5.70;;;13.00;56.80;;;9.18;67.49;94153.50;5008683;28;20101;-51
2022/03/30 06:22:52;;;;;;;17.85;4.85;;;13.00;56.80;;;9.17;67.31;94146.63;4984672;28;20033;-55
2022/03/30 06:25:24;;;;;;;18.98;4.90;;;13.00;56.70;;;9.20;67.44;94154.03;4961105;28;20034;-55
2022/03/30 06:27:51;;;;;;;14.82;5.13;;;13.00;56.60;;;9.19;67.19;94152.47;5019226;28;20030;-56
2022/03/30 06:30:36;;;;;;;19.48;4.43;;;13.00;56.50;;;9.26;67.76;94150.22;5007542;28;20396;-57
2022/03/30 06:33:05;;;;;;;16.05;3.92;;;13.10;56.70;;;9.23;67.79;94162.19;5003735;28;20472;-56
2022/03/30 06:35:34;;;;;;;21.40;5.40;;;13.10;56.60;;;9.27;67.72;94162.41;5008592;28;20116;-55
2022/03/30 06:38:00;;;;;;;17.13;4.70;;;13.10;56.70;;;9.22;67.09;94157.19;4992544;28;20022;-56
2022/03/30 06:40:26;;;;;;;19.27;4.60;;;13.10;56.60;;;9.20;67.82;94162.00;5014278;28;20018;-55
2022/03/30 06:42:56;;;;;;;15.02;4.82;;;13.10;56.60;;;9.22;68.72;94162.50;5014571;28;20076;-55
2022/03/30 06:45:22;;;;;;;21.35;5.00;;;13.00;56.80;;;9.23;68.60;94159.53;5012428;28;20178;-55
2022/03/30 06:47:51;;;;;;;12.88;4.68;;;13.00;56.80;;;9.23;68.73;94162.19;5013246;28;20026;-55
2022/03/30 06:50:18;;;;;;;16.52;4.47;;;13.00;57.00;;;9.20;69.63;94159.34;5010563;28;20026;-56
2022/03/30 06:52:46;;;;;;;20.63;5.40;;;13.00;57.10;;;9.19;68.34;94155.13;5012635;28;20117;-57
2022/03/30 06:55:14;;;;;;;16.75;5.13;;;12.90;57.10;;;9.14;68.69;94150.66;5012771;28;20022;-54
2022/03/30 06:57:43;;;;;;;22.27;5.53;;;12.90;57.10;;;9.16;69.66;94158.34;5011925;28;20469;-56
2022/03/30 07:00:12;;;;;;;18.08;6.20;;;12.80;57.30;;;9.14;70.52;94152.53;5010991;28;20029;-55
2022/03/30 07:02:38;;;;;;;21.48;5.45;;;12.80;57.40;;;9.11;69.47;94142.47;5009375;28;20038;-58
2022/03/30 07:05:04;;;;;;;11.18;4.78;;;12.80;57.40;;;9.10;68.73;94148.88;5012773;28;20030;-58
2022/03/30 07:10:18;;;;;;;17.08;4.78;;;12.80;57.40;;;9.02;68.30;94145.81;5007432;28;20543;-58
2022/03/30 07:12:50;;;;;;;17.23;4.70;;;12.80;57.30;;;9.05;68.72;94144.41;5008939;28;20037;-58
2022/03/30 07:15:25;;;;;;;16.75;5.13;;;12.80;57.40;;;9.09;68.63;94152.59;4990009;28;20542;-57
2022/03/30 07:17:55;;;;;;;19.20;5.43;;;12.80;57.40;;;9.02;68.85;94148.47;5013942;28;20538;-56
2022/03/30 07:20:26;;;;;;;15.43;5.22;;;12.90;57.30;;;9.11;70.21;94153.88;5010770;28;20062;-56
2022/03/30 07:22:58;;;;;;;20.27;5.18;;;13.00;57.40;;;9.10;69.40;94149.66;5013594;28;20053;-57
2022/03/30 07:25:25;;;;;;;17.92;4.85;;;13.20;57.50;;;9.15;69.28;94152.25;5011833;28;20045;-56
2022/03/30 07:27:58;;;;;;;20.67;5.45;;;13.30;57.90;;;9.15;70.93;94156.75;4993802;28;20031;-56
2022/03/30 07:30:30;;;;;;;21.05;5.57;;;13.30;57.30;;;9.18;70.75;94158.81;5009466;28;20109;-56
2022/03/30 07:32:59;;;;;;;19.23;5.13;;;13.30;57.40;;;9.16;71.03;94151.16;5010020;28;20095;-54
2022/03/30 07:35:28;;;;;;;19.50;5.00;;;13.30;57.50;;;9.16;71.34;94155.69;5011139;28;20033;-56
2022/03/30 07:37:55;;;;;;;21.60;5.88;;;13.30;57.50;;;9.16;72.58;94155.69;5009737;28;20023;-55
2022/03/30 07:40:22;;;;;;;19.17;4.55;;;13.30;57.70;;;9.12;72.57;94147.50;5013014;28;20021;-56
2022/03/30 07:42:49;;;;;;;21.45;5.70;;;13.30;57.80;;;9.09;72.27;94145.44;5012656;28;20034;-54
2022/03/30 07:45:16;;;;;;;24.85;5.75;;;13.40;57.90;;;9.08;72.17;94159.00;5009719;28;20393;-55
2022/03/30 07:47:48;;;;;;;22.70;6.13;;;13.40;57.90;;;9.16;73.08;94159.13;5006576;28;20029;-53
2022/03/30 07:50:14;;;;;;;26.08;6.50;;;13.40;58.10;;;9.15;73.37;94162.06;5009640;28;20093;-54
2022/03/30 07:52:45;;;;;;;17.88;5.85;;;13.40;58.10;;;9.21;73.34;94160.91;4990071;28;20417;-52
2022/03/30 07:55:12;;;;;;;22.55;5.78;;;13.30;58.30;;;9.23;74.20;94166.72;5009605;28;20397;-53
2022/03/30 07:57:42;;;;;;;25.10;6.53;;;13.30;58.60;;;9.16;74.51;94161.78;5003515;28;20104;-55
2022/03/30 08:00:16;;;;;;;18.27;6.15;;;13.20;58.70;;;9.16;75.00;94166.31;5033847;28;20053;-56
2022/03/30 08:02:55;;;;;;;15.27;5.43;;;13.20;58.80;;;8.96;75.04;94175.38;4982147;28;20420;-56
2022/03/30 08:05:24;;;;;;;22.05;5.75;;;13.20;59.10;;;8.88;75.04;94163.53;5012850;28;20396;-56
2022/03/30 08:07:50;;;;;;;22.98;5.57;;;13.10;59.20;;;8.89;76.96;94162.44;4992847;28;20080;-56
2022/03/30 08:10:17;;;;;;;17.85;6.40;;;13.10;59.40;;;8.87;76.47;94169.94;5003772;28;20034;-56
2022/03/30 08:12:44;;;;;;;24.33;6.28;;;13.10;59.50;;;8.74;76.22;94168.78;5013902;28;20061;-57
2022/03/30 08:15:22;;;;;;;23.00;5.72;;;13.10;59.60;;;8.70;76.79;94164.31;5012563;28;20026;-58
2022/03/30 08:17:50;;;;;;;18.50;5.68;;;13.10;60.00;;;8.66;76.86;94168.63;5013482;28;20455;-58
2022/03/30 08:23:07;;;;;;;17.70;5.85;;;13.00;60.10;;;8.71;78.63;94172.00;5007212;28;20034;-58
2022/03/30 08:25:38;;;;;;;21.33;6.53;;;12.90;60.50;;;8.68;79.34;94180.56;5009390;28;20033;-59
2022/03/30 08:28:07;;;;;;;21.98;6.35;;;12.90;60.90;;;8.67;79.59;94176.31;5012223;28;20029;-60
2022/03/30 08:30:33;;;;;;;26.63;6.40;;;12.90;61.30;;;8.58;78.51;94181.44;5012197;28;20068;-60
2022/03/30 08:33:05;;;;;;;21.38;6.75;;;12.80;61.20;;;8.49;79.50;94185.84;5008746;28;20092;-58
2022/03/30 08:35:34;;;;;;;21.48;7.15;;;12.80;61.60;;;8.49;80.39;94188.50;5007607;28;20112;-60
2022/03/30 08:38:05;;;;;;;25.15;6.43;;;12.80;61.60;;;8.46;80.13;94186.41;4992663;28;20497;-59
2022/03/30 08:40:35;;;;;;;20.98;6.85;;;12.80;61.90;;;8.47;80.06;94187.97;5007512;28;20022;-59
2022/03/30 08:43:04;;;;;;;27.55;8.68;;;12.80;62.10;;;8.43;81.10;94179.03;5028409;28;20033;-58
2022/03/30 08:45:29;;;;;;;22.58;8.75;;;12.70;62.20;;;8.39;81.26;94195.78;5010913;28;20041;-58
2022/03/30 08:48:02;;;;;;;25.98;10.90;;;12.70;62.50;;;8.29;81.66;94199.31;5012315;28;20483;-57
2022/03/30 08:50:30;;;;;;;28.55;10.82;;;12.70;62.80;;;8.31;82.18;94194.53;5008610;28;20113;-59
2022/03/30 08:53:03;;;;;;;18.23;9.80;;;12.70;62.80;;;8.30;81.45;94187.63;5002778;28;20544;-59
2022/03/30 08:55:31;;;;;;;23.80;11.13;;;12.80;63.80;;;8.28;82.04;94182.59;5013119;28;20030;-60
2022/03/30 08:57:57;;;;;;;26.50;11.00;;;12.80;63.00;;;8.31;82.44;94183.91;5007652;28;20113;-60
2022/03/30 09:00:26;;;;;;;21.75;9.38;;;12.80;63.20;;;8.29;81.75;94196.66;5001515;28;20019;-61
2022/03/30 09:03:00;;;;;;;26.25;9.50;;;12.80;63.50;;;8.32;82.78;94190.78;5009179;28;20057;-61
2022/03/30 09:05:42;;;;;;;20.88;8.10;;;12.80;63.80;;;8.22;81.56;94201.53;5009468;28;20026;-61
2022/03/30 09:08:21;;;;;;;18.05;7.57;;;12.70;64.00;;;8.16;81.56;94194.69;4993580;28;20022;-60
2022/03/30 09:10:51;;;;;;;23.88;7.18;;;12.70;64.10;;;8.15;81.81;94190.44;5003141;28;20148;-60
2022/03/30 09:13:23;;;;;;;17.90;6.78;;;12.60;64.10;;;8.22;81.71;94198.88;5012071;28;20129;-61
2022/03/30 09:15:52;;;;;;;23.13;6.82;;;12.70;64.40;;;8.15;81.76;94196.56;5008556;28;20611;-61
2022/03/30 09:18:19;;;;;;;20.63;6.85;;;12.70;64.30;;;8.17;82.51;94193.63;5011219;28;20053;-61
2022/03/30 09:20:54;;;;;;;17.70;6.05;;;12.70;64.40;;;8.17;82.46;94189.09;5022239;28;20026;-60
2022/03/30 09:23:20;;;;;;;18.90;7.30;;;12.70;64.50;;;8.26;83.05;94194.56;5004624;28;20028;-62
2022/03/30 09:25:48;;;;;;;21.40;7.20;;;12.70;64.40;;;8.30;82.49;94198.22;4976503;28;20034;-63
2022/03/30 09:28:21;;;;;;;21.88;6.90;;;12.70;64.60;;;8.30;82.87;94193.75;4980646;28;20054;-63
2022/03/30 09:30:48;;;;;;;17.27;6.95;;;12.70;64.70;;;8.25;82.59;94185.81;4992541;28;20034;-61
2022/03/30 09:33:23;;;;;;;26.90;6.47;;;12.80;64.70;;;8.30;82.56;94188.44;5012236;28;20113;-62
2022/03/30 09:35:49;;;;;;;19.13;7.32;;;12.80;64.80;;;8.35;82.80;94190.22;4993103;28;20103;-62
2022/03/30 09:38:22;;;;;;;21.92;7.07;;;12.90;64.60;;;8.42;83.18;94179.28;5011278;28;20552;-62
2022/03/30 09:40:55;;;;;;;16.77;7.78;;;12.90;64.70;;;8.45;83.24;94184.81;5007768;28;20049;-63
2022/03/30 09:43:29;;;;;;;31.05;8.55;;;13.00;64.70;;;8.43;83.07;94172.91;5007568;28;20041;-60
2022/03/30 09:46:11;;;;;;;17.58;7.45;;;13.10;64.80;;;8.45;83.40;94194.63;5008089;28;20030;-61
2022/03/30 09:49:04;;;;;;;18.63;6.88;;;13.00;64.80;;;8.36;82.44;94181.19;5008659;28;20392;-62
2022/03/30 09:51:31;;;;;;;21.48;7.10;;;13.10;64.70;;;8.34;82.56;94183.34;5006863;28;20034;-61
2022/03/30 09:54:00;;;;;;;19.15;6.43;;;13.10;64.40;;;8.30;82.13;94177.81;5011011;28;20026;-56
2022/03/30 09:56:26;;;;;;;23.90;7.70;;;13.10;64.40;;;8.31;82.74;94181.25;5008710;28;20410;-53
2022/03/30 09:59:22;;;;;;;26.08;7.88;;;13.10;64.30;;;8.40;83.44;94176.94;5011524;28;20032;-54
2022/03/30 10:01:52;;;;;;;20.17;6.75;;;13.10;64.60;;;8.35;82.53;94166.34;5008819;28;20037;-58
2022/03/30 10:04:24;;;;;;;24.13;7.30;;;13.20;64.60;;;8.36;83.13;94170.56;5013454;28;20034;-57
2022/03/30 10:06:53;;;;;;;20.48;6.28;;;13.30;64.60;;;8.40;82.55;94168.16;4996687;28;20128;-59
2022/03/30 10:09:25;;;;;;;16.95;6.60;;;13.30;64.50;;;8.37;82.96;94158.09;5008982;28;20030;-58
2022/03/30 10:11:51;;;;;;;22.80;7.22;;;13.40;64.40;;;8.43;83.79;94168.41;4969566;28;20030;-62
2022/03/30 10:14:17;;;;;;;26.98;7.40;;;13.40;64.30;;;8.50;83.31;94157.44;5005719;28;20034;-66
2022/03/30 10:16:46;;;;;;;18.40;7.38;;;13.50;64.30;;;8.56;83.99;94150.97;4914642;28;20556;-59
2022/03/30 10:19:12;;;;;;;20.40;7.07;;;13.70;64.30;;;8.65;83.33;94162.53;4999998;28;20046;-61
2022/03/30 10:22:13;;;;;;;17.00;6.70;;;13.90;64.10;;;8.84;83.66;94151.91;5014978;28;20096;-61
2022/03/30 10:25:35;;;;;;;22.08;7.00;;;14.00;64.10;;;9.02;83.08;94153.78;5013916;28;20040;-61
2022/03/30 10:28:43;;;;;;;17.90;7.03;;;14.20;64.00;;;8.99;82.80;94146.38;5019644;28;20432;-61
2022/03/30 10:31:10;;;;;;;17.75;7.32;;;14.30;63.70;;;9.07;82.05;94144.16;5018657;28;20033;-61
2022/03/30 10:33:44;;;;;;;18.30;7.25;;;14.30;63.60;;;9.20;83.31;94144.19;5011652;28;20040;-57
2022/03/30 10:36:29;;;;;;;15.00;6.40;;;14.30;63.80;;;9.18;81.78;94137.56;5014329;28;20032;-58
2022/03/30 10:39:16;;;;;;;17.48;6.90;;;14.30;63.80;;;9.25;81.55;94138.78;4996416;28;20026;-59